Time;durP1;ratioP1;P1;durP2;ratioP2;P2;SDS_P1;SDS_P2;PMS_P1;PMS_P2;Temp;Humidity;BMP_temperature;BMP_pressure;BME280_temperature;BME280_humidity;BME280_pressure;Samples;Min_cycle;Max_cycle;Signal;HPM_P1;HPM_P2
2022/05/22 00:02:29;;;;;;;;;;;;;;;12.50;69.58;100253.41;52851;1268;1016267;-53
2022/05/22 00:04:58;;;;;;;;;;;;;;;12.48;69.63;100254.91;52755;1267;1019275;-51
2022/05/22 00:07:28;;;;;;;;;;;;;;;12.47;69.56;100256.23;52967;1267;1017059;-50
2022/05/22 00:09:58;;;;;;;;;;;;;;;12.45;69.66;100254.63;52801;1267;1016508;-50
2022/05/22 00:12:29;;;;;;;;;;;;;;;12.44;69.79;100258.17;52778;1269;1019624;-51
2022/05/22 00:14:59;;;;;;;;;;;;;;;12.42;69.85;100257.79;52879;1267;1016350;-52
2022/05/22 00:17:29;;;;;;;;;;;;;;;12.39;69.86;100263.46;52848;1268;1019998;-52
2022/05/22 00:19:59;;;;;;;;;;;;;;;12.37;69.96;100262.23;52784;1267;1016286;-54
2022/05/22 00:22:29;;;;;;;;;;;;;;;12.33;70.13;100259.13;52959;1267;1016499;-53
2022/05/22 00:24:59;;;;;;;;;;;;;;;12.30;70.24;100257.50;52939;1267;1018431;-53
2022/05/22 00:27:30;;;;;;;;;;;;;;;12.26;70.26;100255.67;52797;1267;1016315;-54
2022/05/22 00:30:00;;;;;;;;;;;;;;;12.23;70.45;100253.50;52872;1267;1016348;-53
2022/05/22 00:32:30;;;;;;;;;;;;;;;12.21;70.61;100252.01;52839;1265;1016660;-51
2022/05/22 00:34:59;;;;;;;;;;;;;;;12.19;70.68;100249.89;52962;1267;1016614;-52
2022/05/22 00:37:31;;;;;;;;;;;;;;;12.16;70.67;100248.33;52927;1267;1016474;-53
2022/05/22 00:40:01;;;;;;;;;;;;;;;12.14;70.86;100250.95;52868;1267;1016010;-51
2022/05/22 00:42:32;;;;;;;;;;;;;;;12.12;71.00;100253.16;52819;1267;1016559;-54
2022/05/22 00:45:02;;;;;;;;;;;;;;;12.09;70.93;100250.77;52967;1267;1016435;-53
2022/05/22 00:47:31;;;;;;;;;;;;;;;12.08;70.95;100253.96;52935;1267;1016200;-53
2022/05/22 00:50:01;;;;;;;;;;;;;;;12.05;71.15;100254.39;52869;1267;1016216;-54
2022/05/22 00:52:34;;;;;;;;;;;;;;;12.03;71.16;100254.89;53048;1270;1016465;-54
2022/05/22 00:55:07;;;;;;;;;;;;;;;12.01;71.42;100253.52;53064;1267;1016285;-50
2022/05/22 00:57:40;;;;;;;;;;;;;;;11.98;71.29;100250.95;52835;1267;1016291;-49
2022/05/22 01:00:12;;;;;;;;;;;;;;;11.97;71.47;100247.36;52785;1267;1016547;-52
2022/05/22 01:05:29;;;;;;;;;;;;;;;11.93;71.71;100248.64;52747;1267;1018463;-53
2022/05/22 01:08:00;;;;;;;;;;;;;;;11.92;71.83;100247.50;52769;1267;1016686;-50
2022/05/22 01:10:33;;;;;;;;;;;;;;;11.89;71.65;100249.74;52873;1267;1016857;-53
2022/05/22 01:13:03;;;;;;;;;;;;;;;11.86;71.79;100254.70;52798;1267;1016593;-51
2022/05/22 01:15:34;;;;;;;;;;;;;;;11.81;71.73;100256.35;52865;1267;1016676;-51
2022/05/22 01:18:04;;;;;;;;;;;;;;;11.78;72.00;100255.42;52767;1267;1016474;-53
2022/05/22 01:20:33;;;;;;;;;;;;;;;11.75;72.08;100256.20;52775;1267;1016355;-52
2022/05/22 01:23:04;;;;;;;;;;;;;;;11.72;71.93;100255.10;52873;1267;1016040;-54
2022/05/22 01:25:34;;;;;;;;;;;;;;;11.70;72.27;100256.89;52768;1267;1016431;-50
2022/05/22 01:28:05;;;;;;;;;;;;;;;11.68;72.38;100256.13;52897;1268;1016396;-53
2022/05/22 01:30:35;;;;;;;;;;;;;;;11.66;72.40;100257.19;52838;1267;1018793;-52
2022/05/22 01:33:05;;;;;;;;;;;;;;;11.65;72.56;100263.91;52875;1267;1015988;-52
2022/05/22 01:35:36;;;;;;;;;;;;;;;11.62;72.60;100260.06;52817;1267;1018780;-53
2022/05/22 01:38:07;;;;;;;;;;;;;;;11.61;72.62;100259.08;52720;1267;1016343;-53
2022/05/22 01:40:36;;;;;;;;;;;;;;;11.60;72.84;100258.60;52789;1267;1016514;-52
2022/05/22 01:43:06;;;;;;;;;;;;;;;11.56;72.77;100255.75;52756;1268;1019484;-50
2022/05/22 01:45:37;;;;;;;;;;;;;;;11.54;72.91;100251.80;52754;1267;1016200;-53
2022/05/22 01:48:10;;;;;;;;;;;;;;;11.52;73.05;100250.75;52815;1270;1020416;-51
2022/05/22 01:50:40;;;;;;;;;;;;;;;11.49;73.12;100252.84;52847;1267;1017617;-51
2022/05/22 01:53:10;;;;;;;;;;;;;;;11.47;73.27;100255.00;52814;1267;1016345;-50
2022/05/22 01:55:40;;;;;;;;;;;;;;;11.46;73.15;100250.05;52851;1267;1017139;-54
2022/05/22 01:58:09;;;;;;;;;;;;;;;11.44;73.41;100249.66;52884;1268;1016453;-51
2022/05/22 02:00:40;;;;;;;;;;;;;;;11.43;73.29;100246.54;52874;1267;1016305;-54
2022/05/22 02:03:10;;;;;;;;;;;;;;;11.43;73.44;100249.48;52946;1266;1017353;-52
2022/05/22 02:05:40;;;;;;;;;;;;;;;11.39;73.42;100243.55;52819;1267;1015858;-53
2022/05/22 02:08:26;;;;;;;;;;;;;;;11.38;73.42;100239.60;52815;1267;1015979;-50
2022/05/22 02:10:58;;;;;;;;;;;;;;;11.36;73.58;100239.79;52836;1268;1016027;-53
2022/05/22 02:13:30;;;;;;;;;;;;;;;11.35;73.59;100240.52;52893;1267;1016505;-53
2022/05/22 02:16:01;;;;;;;;;;;;;;;11.32;73.85;100237.59;52846;1267;1016764;-53
2022/05/22 02:18:31;;;;;;;;;;;;;;;11.30;73.90;100238.27;52802;1270;1016375;-51
2022/05/22 02:21:01;;;;;;;;;;;;;;;11.29;73.90;100235.21;52864;1268;1016778;-51
2022/05/22 02:23:32;;;;;;;;;;;;;;;11.28;73.98;100236.25;52726;1268;1016296;-53
2022/05/22 02:26:02;;;;;;;;;;;;;;;11.26;74.10;100242.58;52988;1267;1016679;-54
2022/05/22 02:28:32;;;;;;;;;;;;;;;11.24;74.14;100239.50;52909;1267;1016538;-53
2022/05/22 02:31:02;;;;;;;;;;;;;;;11.23;74.05;100241.26;52808;1267;1016151;-54
2022/05/22 02:33:32;;;;;;;;;;;;;;;11.22;74.06;100238.02;52857;1267;1017121;-53
2022/05/22 02:36:03;;;;;;;;;;;;;;;11.21;74.16;100236.04;52812;1267;1015960;-53
2022/05/22 02:38:33;;;;;;;;;;;;;;;11.19;74.27;100235.18;52753;1268;1017379;-53
2022/05/22 02:41:08;;;;;;;;;;;;;;;11.17;74.26;100238.16;52784;1268;1016322;-53
2022/05/22 02:43:38;;;;;;;;;;;;;;;11.16;74.26;100238.52;52520;1271;1016325;-53
2022/05/22 02:46:10;;;;;;;;;;;;;;;11.15;74.34;100237.36;52764;1267;1016176;-53
2022/05/22 02:48:41;;;;;;;;;;;;;;;11.14;74.37;100237.50;52789;1267;1016781;-51
2022/05/22 02:51:12;;;;;;;;;;;;;;;11.14;74.37;100239.42;52869;1267;1016612;-53
2022/05/22 02:53:42;;;;;;;;;;;;;;;11.13;74.34;100231.13;52982;1268;1017201;-53
2022/05/22 02:56:13;;;;;;;;;;;;;;;11.12;74.37;100233.95;52957;1267;1018816;-51
2022/05/22 02:58:43;;;;;;;;;;;;;;;11.11;74.33;100231.75;52906;1267;1016429;-50
2022/05/22 03:01:13;;;;;;;;;;;;;;;11.11;74.31;100230.59;52869;1267;1016683;-51
2022/05/22 03:03:43;;;;;;;;;;;;;;;11.11;74.54;100233.27;53092;1259;1016595;-82
2022/05/22 03:08:59;;;;;;;;;;;;;;;11.10;74.46;100235.26;53657;1266;1015847;-81
2022/05/22 03:11:28;;;;;;;;;;;;;;;11.10;74.67;100237.53;53752;1266;1016652;-81
2022/05/22 03:13:59;;;;;;;;;;;;;;;11.11;74.78;100244.87;53704;1267;1016381;-81
2022/05/22 03:16:28;;;;;;;;;;;;;;;11.12;74.80;100242.23;53703;1267;1016437;-81
2022/05/22 03:18:59;;;;;;;;;;;;;;;11.14;74.80;100238.87;53729;1267;1016732;-81
2022/05/22 03:21:30;;;;;;;;;;;;;;;11.16;74.86;100241.48;53610;1267;1016535;-81
2022/05/22 03:24:00;;;;;;;;;;;;;;;11.18;75.03;100238.11;53500;1267;1016556;-81
2022/05/22 03:26:29;;;;;;;;;;;;;;;11.20;75.15;100240.05;53483;1267;1016751;-81
2022/05/22 03:28:59;;;;;;;;;;;;;;;11.22;75.03;100235.85;53564;1267;1015960;-81
2022/05/22 03:31:28;;;;;;;;;;;;;;;11.25;75.10;100239.20;53564;1270;1016886;-82
2022/05/22 03:33:58;;;;;;;;;;;;;;;11.28;75.01;100237.28;53703;1267;1016387;-81
2022/05/22 03:36:27;;;;;;;;;;;;;;;11.32;74.90;100238.20;53520;1270;1016613;-81
2022/05/22 03:38:57;;;;;;;;;;;;;;;11.35;75.12;100235.52;53688;1267;1016663;-81
2022/05/22 03:41:26;;;;;;;;;;;;;;;11.39;75.18;100237.55;53592;1270;1016167;-81
2022/05/22 03:43:56;;;;;;;;;;;;;;;11.43;74.99;100238.31;53508;1267;1016369;-81
2022/05/22 03:46:25;;;;;;;;;;;;;;;11.45;75.37;100241.05;53554;1267;1016193;-81
2022/05/22 03:48:56;;;;;;;;;;;;;;;11.47;75.33;100238.98;53666;1267;1017534;-81
2022/05/22 03:51:26;;;;;;;;;;;;;;;11.48;75.27;100237.03;53561;1267;1016450;-81
2022/05/22 03:53:56;;;;;;;;;;;;;;;11.51;75.37;100240.78;53530;1267;1016054;-81
2022/05/22 03:56:25;;;;;;;;;;;;;;;11.54;75.42;100242.55;53655;1267;1016039;-81
2022/05/22 03:58:55;;;;;;;;;;;;;;;11.55;75.36;100243.59;53594;1267;1016332;-81
2022/05/22 04:01:25;;;;;;;;;;;;;;;11.58;75.38;100243.11;53620;1267;1015757;-81
2022/05/22 04:03:56;;;;;;;;;;;;;;;11.59;75.28;100243.43;53618;1267;1016353;-81
2022/05/22 04:06:26;;;;;;;;;;;;;;;11.60;75.20;100239.55;53657;1267;1016183;-81
2022/05/22 04:08:55;;;;;;;;;;;;;;;11.63;75.09;100240.50;53589;1267;1016117;-81
2022/05/22 04:11:25;;;;;;;;;;;;;;;11.65;74.79;100239.84;53664;1268;1015754;-81
2022/05/22 04:13:54;;;;;;;;;;;;;;;11.68;74.85;100239.07;53594;1270;1016954;-81
2022/05/22 04:16:24;;;;;;;;;;;;;;;11.70;74.66;100239.36;53647;1267;1016110;-81
2022/05/22 04:18:55;;;;;;;;;;;;;;;11.72;74.40;100240.66;53694;1266;1016337;-81
2022/05/22 04:21:25;;;;;;;;;;;;;;;11.72;74.28;100239.20;53547;1267;1016908;-81
2022/05/22 04:26:43;;;;;;;;;;;;;;;11.72;73.91;100231.21;53563;1270;1016746;-81
2022/05/22 04:29:12;;;;;;;;;;;;;;;11.73;73.78;100234.67;53617;1268;1018795;-81
2022/05/22 04:31:42;;;;;;;;;;;;;;;11.73;73.81;100236.10;53659;1267;1016472;-81
2022/05/22 04:34:12;;;;;;;;;;;;;;;11.73;73.79;100233.40;53672;1270;1016380;-81
2022/05/22 04:36:42;;;;;;;;;;;;;;;11.72;73.73;100231.45;53684;1268;1015705;-81
2022/05/22 04:39:13;;;;;;;;;;;;;;;11.73;73.89;100229.08;53578;1268;1016650;-81
2022/05/22 04:41:43;;;;;;;;;;;;;;;11.73;73.78;100227.41;53522;1266;1016436;-81
2022/05/22 04:44:13;;;;;;;;;;;;;;;11.73;73.78;100230.20;53591;1268;1016540;-81
2022/05/22 04:46:43;;;;;;;;;;;;;;;11.73;73.74;100232.34;53509;1268;1016443;-80
2022/05/22 04:49:13;;;;;;;;;;;;;;;11.77;73.83;100231.27;53662;1268;1016169;-80
2022/05/22 04:51:43;;;;;;;;;;;;;;;11.84;73.75;100229.74;53573;1268;1016476;-82
2022/05/22 04:54:13;;;;;;;;;;;;;;;11.90;73.42;100227.04;53668;1269;1017244;-82
2022/05/22 04:56:43;;;;;;;;;;;;;;;11.95;72.86;100231.00;53683;1267;1016645;-81
2022/05/22 04:59:14;;;;;;;;;;;;;;;11.96;72.92;100227.55;53589;1267;1017466;-80
2022/05/22 05:01:43;;;;;;;;;;;;;;;11.97;72.99;100227.02;53601;1268;1016050;-82
2022/05/22 05:04:13;;;;;;;;;;;;;;;11.98;72.89;100224.44;53714;1267;1016501;-82
2022/05/22 05:06:43;;;;;;;;;;;;;;;12.00;72.85;100227.71;53658;1268;1015805;-82
2022/05/22 05:09:12;;;;;;;;;;;;;;;12.05;72.98;100230.63;53682;1270;1016584;-80
2022/05/22 05:11:43;;;;;;;;;;;;;;;12.12;72.90;100233.16;53715;1267;1016135;-81
2022/05/22 05:14:12;;;;;;;;;;;;;;;12.21;72.85;100233.84;53849;1267;1015987;-80
2022/05/22 05:16:42;;;;;;;;;;;;;;;12.31;72.75;100233.90;53874;1268;1016192;-81
2022/05/22 05:19:11;;;;;;;;;;;;;;;12.42;72.44;100231.63;53579;1268;1015626;-81
2022/05/22 05:21:41;;;;;;;;;;;;;;;12.51;72.40;100236.98;53744;1267;1016322;-82
2022/05/22 05:24:10;;;;;;;;;;;;;;;12.63;72.35;100238.33;53932;1267;1016279;-86
2022/05/22 05:26:40;;;;;;;;;;;;;;;12.73;71.05;100238.64;53834;1267;1016568;-83
2022/05/22 05:29:10;;;;;;;;;;;;;;;12.80;71.41;100229.50;53651;1267;1020053;-83
2022/05/22 05:31:39;;;;;;;;;;;;;;;12.91;71.19;100232.15;53568;1268;1016369;-82
2022/05/22 05:34:09;;;;;;;;;;;;;;;13.02;70.55;100234.05;53693;1267;1016725;-82
2022/05/22 05:36:39;;;;;;;;;;;;;;;13.10;70.45;100238.61;53867;1267;1016529;-82
2022/05/22 05:39:09;;;;;;;;;;;;;;;13.17;70.01;100234.29;53651;1267;1016295;-85
2022/05/22 05:41:40;;;;;;;;;;;;;;;13.20;69.39;100242.16;53731;1267;1015992;-83
2022/05/22 05:44:12;;;;;;;;;;;;;;;13.14;69.01;100235.39;53787;1267;1016209;-83
2022/05/22 05:46:46;;;;;;;;;;;;;;;13.07;69.24;100235.02;53673;1267;1016797;-83
2022/05/22 05:49:16;;;;;;;;;;;;;;;13.07;69.33;100239.86;53741;1268;1016227;-83
2022/05/22 05:51:45;;;;;;;;;;;;;;;13.10;69.00;100238.25;53746;1270;1016470;-81
2022/05/22 05:54:19;;;;;;;;;;;;;;;13.12;68.91;100236.80;53637;1267;1016506;-82
2022/05/22 05:56:52;;;;;;;;;;;;;;;13.18;68.76;100237.66;53657;1268;1016208;-81
2022/05/22 05:59:21;;;;;;;;;;;;;;;13.23;68.81;100238.05;53631;1269;1015887;-81
2022/05/22 06:01:51;;;;;;;;;;;;;;;13.30;68.82;100239.54;53641;1267;1016571;-81
2022/05/22 06:04:21;;;;;;;;;;;;;;;13.38;68.70;100248.69;53524;1267;1016336;-82
2022/05/22 06:06:50;;;;;;;;;;;;;;;13.40;67.65;100253.73;53613;1266;1017380;-81
2022/05/22 06:09:20;;;;;;;;;;;;;;;13.34;68.01;100249.02;53629;1266;1016588;-80
2022/05/22 06:11:50;;;;;;;;;;;;;;;13.37;67.83;100244.84;53646;1268;1015994;-82
2022/05/22 06:14:19;;;;;;;;;;;;;;;13.43;67.97;100244.91;53661;1268;1018557;-82
2022/05/22 06:16:50;;;;;;;;;;;;;;;13.52;67.57;100247.45;53575;1268;1016450;-82
2022/05/22 06:19:53;;;;;;;;;;;;;;;13.57;67.51;100246.33;53622;1270;1016436;-82
2022/05/22 06:22:10;;;;;;;;;;;;;;;13.63;66.92;100247.54;53648;1268;1016116;-81
2022/05/22 06:24:39;;;;;;;;;;;;;;;13.69;67.12;100246.86;53684;1267;1016026;-81
2022/05/22 06:27:09;;;;;;;;;;;;;;;13.76;66.74;100250.23;53703;1268;1016927;-82
2022/05/22 06:29:38;;;;;;;;;;;;;;;13.84;66.44;100254.15;54201;1268;1016589;-81
2022/05/22 06:32:09;;;;;;;;;;;;;;;13.90;66.02;100261.17;54047;1268;1016538;-86
2022/05/22 06:34:41;;;;;;;;;;;;;;;13.94;66.36;100253.23;53838;1267;1016171;-80
2022/05/22 06:37:13;;;;;;;;;;;;;;;14.06;66.38;100250.04;53772;1267;1016396;-82
2022/05/22 06:39:53;;;;;;;;;;;;;;;14.18;66.11;100256.92;53542;1267;1016010;-81
2022/05/22 06:42:25;;;;;;;;;;;;;;;14.22;64.94;100259.36;53636;1269;1016557;-81
2022/05/22 06:44:59;;;;;;;;;;;;;;;14.24;63.77;100259.71;53661;1269;1016741;-82
2022/05/22 06:47:30;;;;;;;;;;;;;;;14.21;63.57;100259.45;53625;1267;1016001;-82
2022/05/22 06:50:01;;;;;;;;;;;;;;;14.19;63.27;100258.93;53621;1267;1016971;-82
2022/05/22 06:52:31;;;;;;;;;;;;;;;14.23;63.71;100252.52;53747;1268;1016485;-78
2022/05/22 06:55:01;;;;;;;;;;;;;;;14.33;63.51;100258.35;53545;1268;1016241;-79
2022/05/22 06:57:30;;;;;;;;;;;;;;;14.36;62.18;100262.80;53763;1268;1016397;-81
2022/05/22 07:00:03;;;;;;;;;;;;;;;14.31;62.22;100264.68;53759;1268;1016669;-80
2022/05/22 07:02:35;;;;;;;;;;;;;;;14.34;62.90;100257.09;53774;1268;1016393;-80
2022/05/22 07:05:05;;;;;;;;;;;;;;;14.48;62.91;100252.73;53713;1270;1015629;-81
2022/05/22 07:07:38;;;;;;;;;;;;;;;14.63;61.64;100255.44;53683;1267;1016663;-82
2022/05/22 07:10:08;;;;;;;;;;;;;;;14.75;61.38;100255.57;53660;1268;1016478;-81
2022/05/22 07:12:38;;;;;;;;;;;;;;;14.76;60.08;100255.44;53555;1270;1016105;-81
2022/05/22 07:15:10;;;;;;;;;;;;;;;14.76;60.00;100256.55;53636;1268;1016092;-80
2022/05/22 07:17:39;;;;;;;;;;;;;;;14.74;59.83;100252.05;53714;1268;1016151;-79
2022/05/22 07:20:11;;;;;;;;;;;;;;;14.75;60.31;100254.30;53745;1269;1016525;-81
2022/05/22 07:22:41;;;;;;;;;;;;;;;14.76;59.51;100250.23;53748;1268;1016106;-81
2022/05/22 07:25:11;;;;;;;;;;;;;;;14.82;60.10;100250.99;53621;1270;1017129;-81
2022/05/22 07:27:41;;;;;;;;;;;;;;;14.87;59.39;100252.59;53602;1268;1016554;-82
2022/05/22 07:30:11;;;;;;;;;;;;;;;14.96;59.90;100251.84;53656;1266;1016555;-82
2022/05/22 07:32:42;;;;;;;;;;;;;;;15.05;58.29;100260.33;53750;1268;1018232;-82
2022/05/22 07:35:12;;;;;;;;;;;;;;;14.98;58.65;100257.09;53777;1267;1016464;-82
2022/05/22 07:37:41;;;;;;;;;;;;;;;14.91;58.91;100254.59;53707;1267;1019140;-83
2022/05/22 07:40:13;;;;;;;;;;;;;;;14.89;58.39;100254.42;53770;1268;1017841;-83
2022/05/22 07:42:43;;;;;;;;;;;;;;;14.82;57.90;100256.73;53712;1268;1016502;-83
2022/05/22 07:45:15;;;;;;;;;;;;;;;14.71;58.02;100256.80;53669;1268;1016889;-83
2022/05/22 07:47:45;;;;;;;;;;;;;;;14.61;58.72;100250.59;53581;1268;1016701;-83
2022/05/22 07:50:20;;;;;;;;;;;;;;;14.65;59.25;100251.83;53610;1268;1019043;-83
2022/05/22 07:52:51;;;;;;;;;;;;;;;14.73;59.04;100241.83;53671;1267;1016526;-82
2022/05/22 07:55:21;;;;;;;;;;;;;;;14.82;58.33;100240.42;53610;1268;1015910;-82
2022/05/22 07:57:51;;;;;;;;;;;;;;;14.91;58.38;100235.63;53631;1268;1016332;-83
2022/05/22 08:00:22;;;;;;;;;;;;;;;14.99;58.24;100236.26;53644;1268;1016395;-85
2022/05/22 08:02:52;;;;;;;;;;;;;;;15.07;58.22;100232.83;53748;1268;1016425;-82
2022/05/22 08:05:21;;;;;;;;;;;;;;;15.14;57.22;100231.51;53703;1271;1018061;-82
2022/05/22 08:07:51;;;;;;;;;;;;;;;15.11;57.12;100222.35;53596;1268;1016655;-82
2022/05/22 08:10:21;;;;;;;;;;;;;;;15.15;57.01;100221.44;53568;1268;1016807;-82
2022/05/22 08:12:51;;;;;;;;;;;;;;;15.18;56.45;100222.88;53592;1267;1018436;-83
2022/05/22 08:15:21;;;;;;;;;;;;;;;15.21;56.91;100215.30;53779;1267;1015773;-82
2022/05/22 08:17:51;;;;;;;;;;;;;;;15.27;56.88;100213.35;53637;1268;1016477;-83
2022/05/22 08:20:22;;;;;;;;;;;;;;;15.38;56.75;100210.17;53857;1268;1016056;-82
2022/05/22 08:22:56;;;;;;;;;;;;;;;15.48;56.57;100202.79;53636;1268;1016557;-83
2022/05/22 08:25:27;;;;;;;;;;;;;;;15.56;56.61;100199.44;53762;1267;1016236;-83
2022/05/22 08:27:58;;;;;;;;;;;;;;;15.64;55.82;100203.98;53622;1268;1016616;-82
2022/05/22 08:30:30;;;;;;;;;;;;;;;15.68;55.91;100202.22;53642;1268;1016622;-83
2022/05/22 08:33:01;;;;;;;;;;;;;;;15.74;55.44;100202.58;53845;1270;1016524;-82
2022/05/22 08:35:32;;;;;;;;;;;;;;;15.81;55.67;100198.66;53869;1268;1016249;-82
2022/05/22 08:38:10;;;;;;;;;;;;;;;15.90;55.43;100200.33;53692;1269;1016298;-83
2022/05/22 08:40:47;;;;;;;;;;;;;;;15.97;54.82;100200.70;53708;1268;1016468;-83
2022/05/22 08:43:22;;;;;;;;;;;;;;;16.00;54.55;100204.79;53779;1268;1016414;-82
2022/05/22 08:45:56;;;;;;;;;;;;;;;15.98;53.69;100202.27;53826;1268;1017768;-83
2022/05/22 08:48:30;;;;;;;;;;;;;;;15.93;54.44;100199.84;54671;1268;1015698;-83
2022/05/22 08:51:01;;;;;;;;;;;;;;;15.99;54.12;100201.06;54724;1268;1014865;-83
2022/05/22 08:53:34;;;;;;;;;;;;;;;16.00;53.96;100197.69;54713;1268;1015976;-83
2022/05/22 08:58:57;;;;;;;;;;;;;;;16.02;53.75;100202.64;53935;1267;1016702;-83
2022/05/22 09:01:33;;;;;;;;;;;;;;;16.03;53.94;100192.96;53763;1268;1016702;-81
2022/05/22 09:04:10;;;;;;;;;;;;;;;16.09;53.98;100194.42;53567;1268;1016063;-81
2022/05/22 09:06:45;;;;;;;;;;;;;;;16.17;53.93;100192.13;53606;1268;1018031;-80
2022/05/22 09:09:14;;;;;;;;;;;;;;;16.26;53.72;100194.19;53592;1268;1016535;-81
2022/05/22 09:12:00;;;;;;;;;;;;;;;16.26;53.31;100196.70;53493;1268;1016434;-81
2022/05/22 09:14:33;;;;;;;;;;;;;;;16.22;52.52;100196.92;53674;1268;1016588;-82
2022/05/22 09:17:05;;;;;;;;;;;;;;;16.19;52.76;100195.61;53681;1268;1016443;-81
2022/05/22 09:19:41;;;;;;;;;;;;;;;16.17;52.34;100197.50;53672;1268;1015769;-81
2022/05/22 09:22:17;;;;;;;;;;;;;;;16.12;52.47;100197.52;53629;1268;1016114;-81
2022/05/22 09:24:53;;;;;;;;;;;;;;;16.09;52.61;100199.94;53672;1268;1016514;-82
2022/05/22 09:27:29;;;;;;;;;;;;;;;16.05;52.30;100199.14;53631;1267;1016563;-82
2022/05/22 09:30:03;;;;;;;;;;;;;;;16.02;52.00;100200.55;53491;1268;1015959;-81
2022/05/22 09:32:49;;;;;;;;;;;;;;;15.94;52.12;100205.84;53668;1268;1016512;-82
2022/05/22 09:35:25;;;;;;;;;;;;;;;15.85;52.31;100204.84;53579;1268;1016404;-81
2022/05/22 09:38:02;;;;;;;;;;;;;;;15.80;52.96;100205.77;53567;1268;1016304;-81
2022/05/22 09:40:35;;;;;;;;;;;;;;;15.80;52.48;100209.86;53595;1268;1016255;-81
2022/05/22 09:43:11;;;;;;;;;;;;;;;15.82;52.33;100199.88;53792;1267;1017301;-80
2022/05/22 09:45:46;;;;;;;;;;;;;;;15.84;52.19;100200.95;53827;1268;1016150;-80
2022/05/22 09:48:26;;;;;;;;;;;;;;;15.91;52.38;100198.48;53770;1267;1016353;-81
2022/05/22 09:51:00;;;;;;;;;;;;;;;16.01;51.71;100198.91;53698;1268;1016121;-81
2022/05/22 09:53:38;;;;;;;;;;;;;;;16.10;51.28;100189.04;53679;1268;1018221;-84
2022/05/22 09:56:14;;;;;;;;;;;;;;;16.16;50.72;100196.84;53634;1268;1016583;-82
2022/05/22 09:58:55;;;;;;;;;;;;;;;16.20;51.26;100189.35;53775;1268;1016165;-81
2022/05/22 10:01:28;;;;;;;;;;;;;;;16.27;51.15;100188.86;53792;1268;1016178;-81
2022/05/22 10:04:05;;;;;;;;;;;;;;;16.34;51.29;100184.31;53780;1268;1016657;-84
2022/05/22 10:06:41;;;;;;;;;;;;;;;16.50;51.58;100182.91;53830;1266;1016117;-85
2022/05/22 10:09:16;;;;;;;;;;;;;;;16.62;51.19;100187.51;53825;1268;1015630;-82
2022/05/22 10:11:56;;;;;;;;;;;;;;;16.59;50.83;100195.11;53604;1268;1016275;-81
2022/05/22 10:14:36;;;;;;;;;;;;;;;16.46;50.88;100200.34;53665;1268;1020306;-82
2022/05/22 10:17:13;;;;;;;;;;;;;;;16.33;51.03;100196.92;53583;1268;1015562;-81
2022/05/22 10:19:51;;;;;;;;;;;;;;;16.28;51.25;100201.81;53766;1268;1016412;-83
2022/05/22 10:22:25;;;;;;;;;;;;;;;16.27;51.29;100200.33;53717;1268;1016669;-81
2022/05/22 10:25:04;;;;;;;;;;;;;;;16.33;51.33;100205.11;53773;1268;1016031;-82
2022/05/22 10:27:43;;;;;;;;;;;;;;;16.41;50.52;100208.45;53762;1268;1016371;-82
2022/05/22 10:30:17;;;;;;;;;;;;;;;16.39;50.41;100207.81;53824;1268;1016603;-81
2022/05/22 10:32:51;;;;;;;;;;;;;;;16.38;49.99;100214.30;53850;1267;1016087;-82
2022/05/22 10:35:24;;;;;;;;;;;;;;;16.35;50.26;100204.48;53675;1268;1016137;-82
2022/05/22 10:37:56;;;;;;;;;;;;;;;16.38;50.10;100206.11;53722;1267;1016738;-82
2022/05/22 10:40:26;;;;;;;;;;;;;;;16.37;50.29;100217.27;53642;1267;1015997;-82
2022/05/22 10:42:57;;;;;;;;;;;;;;;16.34;50.50;100216.29;53725;1267;1016785;-82
2022/05/22 10:45:32;;;;;;;;;;;;;;;16.27;50.48;100219.17;53732;1268;1016437;-83
2022/05/22 10:48:08;;;;;;;;;;;;;;;16.19;50.08;100222.54;53687;1267;1016354;-81
2022/05/22 10:50:39;;;;;;;;;;;;;;;16.10;50.41;100223.50;53861;1268;1016506;-82
2022/05/22 10:53:22;;;;;;;;;;;;;;;16.07;50.69;100222.59;53766;1268;1016290;-84
2022/05/22 10:55:52;;;;;;;;;;;;;;;16.09;50.96;100225.81;53965;1267;1016207;-83
2022/05/22 10:58:25;;;;;;;;;;;;;;;16.12;51.29;100225.68;53815;1267;1016176;-82
2022/05/22 11:00:56;;;;;;;;;;;;;;;16.14;51.24;100229.05;53751;1267;1016442;-83
2022/05/22 11:03:28;;;;;;;;;;;;;;;16.09;50.86;100231.48;53748;1267;1016322;-84
2022/05/22 11:05:58;;;;;;;;;;;;;;;15.97;50.71;100231.27;53836;1267;1016163;-81
2022/05/22 11:08:30;;;;;;;;;;;;;;;15.85;51.07;100239.30;53800;1267;1016274;-82
2022/05/22 11:11:11;;;;;;;;;;;;;;;15.74;51.60;100241.16;53736;1267;1015949;-82
2022/05/22 11:13:40;;;;;;;;;;;;;;;15.68;51.56;100229.49;54051;1268;1016679;-81
2022/05/22 11:16:15;;;;;;;;;;;;;;;15.67;51.71;100223.20;54144;1267;1018758;-81
2022/05/22 11:18:45;;;;;;;;;;;;;;;15.68;51.78;100216.51;53941;1268;1016122;-82
2022/05/22 11:21:22;;;;;;;;;;;;;;;15.72;52.13;100223.86;53795;1268;1016444;-80
2022/05/22 11:24:12;;;;;;;;;;;;;;;15.76;51.83;100225.23;53675;1267;1015804;-85
2022/05/22 11:26:48;;;;;;;;;;;;;;;15.81;52.30;100213.70;53984;1268;1016378;-84
2022/05/22 11:29:26;;;;;;;;;;;;;;;15.93;52.52;100210.91;53766;1268;1015548;-82
2022/05/22 11:32:00;;;;;;;;;;;;;;;16.06;51.99;100208.70;53721;1268;1016213;-81
2022/05/22 11:34:53;;;;;;;;;;;;;;;16.16;52.01;100197.81;53762;1267;1016111;-83
2022/05/22 11:37:29;;;;;;;;;;;;;;;16.31;51.37;100206.86;53799;1268;1018805;-82
2022/05/22 11:40:03;;;;;;;;;;;;;;;16.40;51.36;100203.70;54018;1268;1016216;-84
2022/05/22 11:42:36;;;;;;;;;;;;;;;16.50;51.85;100201.16;53933;1267;1017071;-82
2022/05/22 11:45:12;;;;;;;;;;;;;;;16.62;51.30;100200.22;53837;1268;1016165;-82
2022/05/22 11:47:52;;;;;;;;;;;;;;;16.70;51.38;100195.71;53797;1268;1016396;-83
2022/05/22 11:50:28;;;;;;;;;;;;;;;16.78;51.55;100188.27;53840;1267;1016058;-83
2022/05/22 11:53:04;;;;;;;;;;;;;;;16.83;51.28;100194.80;53778;1267;1016552;-84
2022/05/22 11:55:39;;;;;;;;;;;;;;;16.84;50.12;100197.56;53816;1268;1016357;-83
2022/05/22 11:58:18;;;;;;;;;;;;;;;16.83;50.45;100192.59;53837;1267;1016402;-80
2022/05/22 12:00:52;;;;;;;;;;;;;;;16.89;50.03;100195.16;53747;1267;1016581;-81
2022/05/22 12:03:39;;;;;;;;;;;;;;;16.93;49.76;100192.05;53692;1267;1015734;-81
2022/05/22 12:06:12;;;;;;;;;;;;;;;17.04;49.53;100193.45;53725;1267;1016288;-81
2022/05/22 12:08:59;;;;;;;;;;;;;;;17.09;49.52;100184.19;53672;1267;1016445;-80
2022/05/22 12:11:33;;;;;;;;;;;;;;;17.13;49.21;100176.10;53831;1267;1017227;-82
2022/05/22 12:14:10;;;;;;;;;;;;;;;17.21;48.82;100179.37;53575;1268;1092501;-84
2022/05/22 12:16:42;;;;;;;;;;;;;;;17.26;47.79;100188.81;53881;1268;1016246;-82
2022/05/22 12:19:17;;;;;;;;;;;;;;;17.24;47.41;100176.92;53802;1268;1018436;-82
2022/05/22 12:21:55;;;;;;;;;;;;;;;17.29;47.83;100179.19;53949;1267;1018142;-82
2022/05/22 12:24:30;;;;;;;;;;;;;;;17.29;47.27;100180.02;53958;1267;1016465;-82
2022/05/22 12:27:02;;;;;;;;;;;;;;;17.29;47.27;100175.09;53800;1267;1016830;-82
2022/05/22 12:29:37;;;;;;;;;;;;;;;17.35;47.30;100161.80;53734;1268;1018130;-82
2022/05/22 12:32:11;;;;;;;;;;;;;;;17.44;47.42;100154.52;53904;1268;1016366;-82
2022/05/22 12:34:44;;;;;;;;;;;;;;;17.53;47.49;100159.90;53966;1267;1016359;-83
2022/05/22 12:37:20;;;;;;;;;;;;;;;17.57;47.26;100161.80;53877;1267;1016663;-81
2022/05/22 12:39:57;;;;;;;;;;;;;;;17.58;47.48;100155.38;53865;1268;1016230;-82
2022/05/22 12:42:31;;;;;;;;;;;;;;;17.64;47.53;100159.62;53828;1268;1016353;-82
2022/05/22 12:45:02;;;;;;;;;;;;;;;17.72;46.96;100162.61;53855;1268;1016614;-83
2022/05/22 12:47:41;;;;;;;;;;;;;;;17.77;46.89;100151.66;53946;1267;1015873;-84
2022/05/22 12:50:12;;;;;;;;;;;;;;;17.79;46.43;100153.05;53919;1267;1016245;-83
2022/05/22 12:52:52;;;;;;;;;;;;;;;17.86;46.71;100152.19;53986;1267;1016435;-85
2022/05/22 12:55:30;;;;;;;;;;;;;;;17.96;46.38;100147.91;53900;1267;1018571;-85